Main page
Satellite images 15-day forecastsClimateMarine weather Cyclones Lightning AirportsFAQ Newsletter About
Weather : Europe Africa North America South America Asia Australia-Oceania Others
Languages Contact

London-Southend, England

latitude: 51-34N, longitude: 000-42E, elevation: 15 m


METAR: EGMC 300950Z 26014KT 9999 FEW032 18/09 Q1014
short-TAF: EGMC 300759Z 3009/3018 26012KT 9999 SCT040
long-TAF: out of date (322 hours)

Time: 11:10 (10:10 UTC)

Current weather observation

The report was made 20 minutes ago, at 09:50 UTC  
Wind 14 kt from the West
Temperature 18°C
Humidity 56%
Pressure 1014 hPa
Visibility 10 km or more
Few clouds at a height of 3200 ft

Change units

Forecast

The report was made 1 hour and 55 minutes ago, at 08:15 UTC  
Forecast valid from 30 at 09 UTC to 30 at 18 UTC
Wind 12 kt from the West
Visibility 10 km or more
Scattered clouds at a height of 4000 ft
The information on this site is subject to a disclaimer
Weather : Europe Africa North America South America Asia Australia-Oceania Others
Satellite images 15-day forecastsClimateMarine weather Cyclones Lightning AirportsFAQ Languages Contact Newsletter About